Time;durP1;ratioP1;P1;durP2;ratioP2;P2;SDS_P1;SDS_P2;PMS_P1;PMS_P2;Temp;Humidity;BMP_temperature;BMP_pressure;BME280_temperature;BME280_humidity;BME280_pressure;Samples;Min_cycle;Max_cycle;Signal;HPM_P1;HPM_P2
2023/07/13 00:00:11;;;;;;;;;;;23.60;56.10;;;;;;5092366;28;19920;-57
2023/07/13 00:02:37;;;;;;;;;;;23.60;56.10;;;;;;5074472;28;19934;-57
2023/07/13 00:05:03;;;;;;;;;;;23.60;56.10;;;;;;5092545;28;19920;-57
2023/07/13 00:07:28;;;;;;;;;;;23.60;56.10;;;;;;5074494;28;19924;-57
2023/07/13 00:09:54;;;;;;;;;;;23.60;56.10;;;;;;5092272;28;19967;-57
2023/07/13 00:12:27;;;;;;;;;;;23.60;56.10;;;;;;5092116;28;19924;-58
2023/07/13 00:14:53;;;;;;;;;;;23.50;56.10;;;;;;5077028;28;19920;-57
2023/07/13 00:17:18;;;;;;;;;;;23.60;56.10;;;;;;5096212;28;20276;-58
2023/07/13 00:19:44;;;;;;;;;;;23.50;56.00;;;;;;5096480;28;19920;-58
2023/07/13 00:22:09;;;;;;;;;;;23.50;56.10;;;;;;5078327;28;20286;-58
2023/07/13 00:24:35;;;;;;;;;;;23.50;56.10;;;;;;5078066;28;19920;-58
2023/07/13 00:27:01;;;;;;;;;;;23.50;56.10;;;;;;5077418;28;20014;-58
2023/07/13 00:29:27;;;;;;;;;;;23.50;56.10;;;;;;5096158;28;20352;-58
2023/07/13 00:31:52;;;;;;;;;;;23.50;56.10;;;;;;5095863;28;19920;-57
2023/07/13 00:34:18;;;;;;;;;;;23.50;56.10;;;;;;5077816;28;19989;-57
2023/07/13 00:36:43;;;;;;;;;;;23.50;56.10;;;;;;5077977;28;20282;-57
2023/07/13 00:39:09;;;;;;;;;;;23.50;56.10;;;;;;5078061;28;20428;-58
2023/07/13 00:41:35;;;;;;;;;;;23.50;56.10;;;;;;5095884;28;19920;-57
2023/07/13 00:44:02;;;;;;;;;;;23.50;56.10;;;;;;5077564;28;19920;-58
2023/07/13 00:46:30;;;;;;;;;;;23.50;56.10;;;;;;5077790;28;19936;-58
2023/07/13 00:48:57;;;;;;;;;;;23.50;56.10;;;;;;5077764;28;19938;-57
2023/07/13 00:51:26;;;;;;;;;;;23.40;56.10;;;;;;5095741;28;19927;-57
2023/07/13 00:53:52;;;;;;;;;;;23.40;56.10;;;;;;5077135;28;19951;-58
2023/07/13 00:56:18;;;;;;;;;;;23.40;56.10;;;;;;5077765;28;19924;-58
2023/07/13 00:58:44;;;;;;;;;;;23.40;56.10;;;;;;5077530;28;19928;-58
2023/07/13 01:01:09;;;;;;;;;;;23.40;56.10;;;;;;5077348;28;19926;-58
2023/07/13 01:03:35;;;;;;;;;;;23.40;56.10;;;;;;5077178;28;20349;-57
2023/07/13 01:06:01;;;;;;;;;;;23.40;56.20;;;;;;5077529;28;20287;-57
2023/07/13 01:08:26;;;;;;;;;;;23.40;56.10;;;;;;5077408;28;19920;-58
2023/07/13 01:10:56;;;;;;;;;;;23.40;56.10;;;;;;5077436;28;19920;-57
2023/07/13 01:13:21;;;;;;;;;;;23.40;56.10;;;;;;5077114;28;19932;-57
2023/07/13 01:15:49;;;;;;;;;;;23.40;56.10;;;;;;5077138;28;19934;-57
2023/07/13 01:18:16;;;;;;;;;;;23.40;56.20;;;;;;5095047;28;20039;-57
2023/07/13 01:21:02;;;;;;;;;;;23.40;56.20;;;;;;5077313;28;20015;-57
2023/07/13 01:23:28;;;;;;;;;;;23.40;56.10;;;;;;5077044;28;20319;-57
2023/07/13 01:25:55;;;;;;;;;;;23.40;56.20;;;;;;5076464;28;19920;-57
2023/07/13 01:28:20;;;;;;;;;;;23.40;56.20;;;;;;5076969;28;19921;-57
2023/07/13 01:30:46;;;;;;;;;;;23.30;56.10;;;;;;5094820;28;20010;-58
2023/07/13 01:33:13;;;;;;;;;;;23.30;56.20;;;;;;5093592;28;20049;-57
2023/07/13 01:35:39;;;;;;;;;;;23.40;56.20;;;;;;5076575;28;19927;-57
2023/07/13 01:38:05;;;;;;;;;;;23.30;56.20;;;;;;5077061;28;19920;-57
2023/07/13 01:40:30;;;;;;;;;;;23.30;56.20;;;;;;5076603;28;20413;-58
2023/07/13 01:42:56;;;;;;;;;;;23.30;56.20;;;;;;5076928;28;19920;-57
2023/07/13 01:45:21;;;;;;;;;;;23.30;56.20;;;;;;5076674;28;19920;-57
2023/07/13 01:47:47;;;;;;;;;;;23.30;56.20;;;;;;5076870;28;20401;-57
2023/07/13 01:50:12;;;;;;;;;;;23.30;57.00;;;;;;5094532;28;20286;-57
2023/07/13 01:52:38;;;;;;;;;;;23.20;56.20;;;;;;5072926;28;20394;-57
2023/07/13 01:55:04;;;;;;;;;;;23.20;56.20;;;;;;5089765;28;20353;-58
2023/07/13 01:57:30;;;;;;;;;;;23.20;57.00;;;;;;5072900;28;19987;-58
2023/07/13 01:59:55;;;;;;;;;;;23.20;56.20;;;;;;5073136;28;19936;-57
2023/07/13 02:02:21;;;;;;;;;;;23.20;56.30;;;;;;5073078;28;20326;-57
2023/07/13 02:04:46;;;;;;;;;;;23.20;56.20;;;;;;5073084;28;19920;-57
2023/07/13 02:07:12;;;;;;;;;;;23.20;56.20;;;;;;5074005;28;19921;-57
2023/07/13 02:09:37;;;;;;;;;;;23.20;56.20;;;;;;5072734;28;19924;-57
2023/07/13 02:12:03;;;;;;;;;;;23.20;56.20;;;;;;5072601;28;19921;-57
2023/07/13 02:14:28;;;;;;;;;;;23.20;56.30;;;;;;5072954;28;19920;-57
2023/07/13 02:16:54;;;;;;;;;;;23.20;56.30;;;;;;5073729;28;19927;-58
2023/07/13 02:19:20;;;;;;;;;;;23.20;56.30;;;;;;5072878;28;20410;-58
2023/07/13 02:21:45;;;;;;;;;;;23.20;56.30;;;;;;5073820;28;20034;-58
2023/07/13 02:24:17;;;;;;;;;;;23.20;56.30;;;;;;5072712;28;19928;-57
2023/07/13 02:26:43;;;;;;;;;;;23.20;56.30;;;;;;5073461;28;20021;-57
2023/07/13 02:29:09;;;;;;;;;;;23.20;56.40;;;;;;5072659;28;20002;-57
2023/07/13 02:31:35;;;;;;;;;;;23.20;56.30;;;;;;5072299;28;19974;-57
2023/07/13 02:34:01;;;;;;;;;;;23.20;56.30;;;;;;5073365;28;19931;-58
2023/07/13 02:36:27;;;;;;;;;;;23.10;56.30;;;;;;5071628;28;19921;-57
2023/07/13 02:38:52;;;;;;;;;;;23.20;56.40;;;;;;5072088;28;19978;-57
2023/07/13 02:41:18;;;;;;;;;;;23.10;56.30;;;;;;5073287;28;20327;-57
2023/07/13 02:43:43;;;;;;;;;;;23.20;56.30;;;;;;5072289;28;19924;-57
2023/07/13 02:46:09;;;;;;;;;;;23.10;56.30;;;;;;5071143;28;19920;-57
2023/07/13 02:48:35;;;;;;;;;;;23.10;56.30;;;;;;5072176;28;19927;-57
2023/07/13 02:51:01;;;;;;;;;;;23.10;56.40;;;;;;5072076;28;20346;-57
2023/07/13 02:53:26;;;;;;;;;;;23.10;56.40;;;;;;5089405;28;19924;-58
2023/07/13 02:55:52;;;;;;;;;;;23.10;56.40;;;;;;5093344;28;20371;-57
2023/07/13 02:58:17;;;;;;;;;;;23.10;56.40;;;;;;5075274;28;19930;-58
2023/07/13 03:00:43;;;;;;;;;;;23.10;56.40;;;;;;5075088;28;19960;-58
2023/07/13 03:03:09;;;;;;;;;;;23.10;56.40;;;;;;5074847;28;19920;-57
2023/07/13 03:05:34;;;;;;;;;;;23.10;56.40;;;;;;5093372;28;19959;-57
2023/07/13 03:08:00;;;;;;;;;;;23.10;56.40;;;;;;5093049;28;19920;-57
2023/07/13 03:10:25;;;;;;;;;;;23.10;57.20;;;;;;5093007;28;19920;-57
2023/07/13 03:12:51;;;;;;;;;;;23.10;56.50;;;;;;5074942;28;20380;-57
2023/07/13 03:15:17;;;;;;;;;;;23.00;56.50;;;;;;5092993;28;20264;-58
2023/07/13 03:17:42;;;;;;;;;;;23.00;56.40;;;;;;5074636;28;19931;-57
2023/07/13 03:20:11;;;;;;;;;;;23.00;56.40;;;;;;5092912;28;19932;-58
2023/07/13 03:22:37;;;;;;;;;;;23.00;56.40;;;;;;5074675;28;19920;-57
2023/07/13 03:25:03;;;;;;;;;;;23.00;56.50;;;;;;5074663;28;19920;-57
2023/07/13 03:27:28;;;;;;;;;;;23.00;56.50;;;;;;5092748;28;20029;-57
2023/07/13 03:29:54;;;;;;;;;;;23.00;56.50;;;;;;5074955;28;19920;-58
2023/07/13 03:32:19;;;;;;;;;;;23.00;56.50;;;;;;5092640;28;19931;-57
2023/07/13 03:34:45;;;;;;;;;;;23.00;56.50;;;;;;5074837;28;20338;-57
2023/07/13 03:37:10;;;;;;;;;;;23.00;56.50;;;;;;5074571;28;20015;-58
2023/07/13 03:39:36;;;;;;;;;;;23.00;56.50;;;;;;5074767;28;20002;-57
2023/07/13 03:42:01;;;;;;;;;;;23.00;56.50;;;;;;5074519;28;19961;-57
2023/07/13 03:44:27;;;;;;;;;;;22.90;56.50;;;;;;5074689;28;20012;-57
2023/07/13 03:46:53;;;;;;;;;;;22.90;56.50;;;;;;5091356;28;19920;-57
2023/07/13 03:49:18;;;;;;;;;;;22.90;56.50;;;;;;5074402;28;19969;-57
2023/07/13 03:51:44;;;;;;;;;;;22.90;56.50;;;;;;5074129;28;19924;-57
2023/07/13 03:54:09;;;;;;;;;;;22.90;56.50;;;;;;5074221;28;19971;-57
2023/07/13 03:56:35;;;;;;;;;;;22.90;56.50;;;;;;5074263;28;19920;-57
2023/07/13 03:59:00;;;;;;;;;;;22.90;56.50;;;;;;5092294;28;19920;-58
2023/07/13 04:01:26;;;;;;;;;;;22.90;56.60;;;;;;5074176;28;20311;-57
2023/07/13 04:03:52;;;;;;;;;;;22.90;56.50;;;;;;5074147;28;19970;-57
2023/07/13 04:06:21;;;;;;;;;;;22.90;56.60;;;;;;5074378;28;20287;-58
2023/07/13 04:08:48;;;;;;;;;;;22.90;56.60;;;;;;5074049;28;20010;-58
2023/07/13 04:11:13;;;;;;;;;;;22.90;56.60;;;;;;5074405;28;19920;-57
2023/07/13 04:13:39;;;;;;;;;;;22.90;56.60;;;;;;5074126;28;19924;-57
2023/07/13 04:16:04;;;;;;;;;;;22.90;56.60;;;;;;5074452;28;19923;-57
2023/07/13 04:18:30;;;;;;;;;;;22.90;56.60;;;;;;5074359;28;20367;-58
2023/07/13 04:20:55;;;;;;;;;;;22.80;56.50;;;;;;5092588;28;19920;-58
2023/07/13 04:23:21;;;;;;;;;;;22.90;56.60;;;;;;5092351;28;19920;-57
2023/07/13 04:25:49;;;;;;;;;;;22.80;56.60;;;;;;5074320;28;19930;-57
2023/07/13 04:28:15;;;;;;;;;;;22.80;56.60;;;;;;5074200;28;19920;-58
2023/07/13 04:30:41;;;;;;;;;;;22.80;56.60;;;;;;5074210;28;20077;-57
2023/07/13 04:33:06;;;;;;;;;;;22.80;56.60;;;;;;5092023;28;20375;-57
2023/07/13 04:35:32;;;;;;;;;;;22.80;56.60;;;;;;5091900;28;19920;-57
2023/07/13 04:37:57;;;;;;;;;;;22.80;56.60;;;;;;5074198;28;20035;-58
2023/07/13 04:40:23;;;;;;;;;;;22.80;56.60;;;;;;5074070;28;19926;-58
2023/07/13 04:42:48;;;;;;;;;;;22.80;56.60;;;;;;5074194;28;19924;-57
2023/07/13 04:45:14;;;;;;;;;;;22.80;56.60;;;;;;5074118;28;20395;-58
2023/07/13 04:47:40;;;;;;;;;;;22.80;56.60;;;;;;5091977;28;19920;-57
2023/07/13 04:50:07;;;;;;;;;;;22.80;56.60;;;;;;5073820;28;20535;-57
2023/07/13 04:52:32;;;;;;;;;;;22.80;56.60;;;;;;5073830;28;20268;-57
2023/07/13 04:54:59;;;;;;;;;;;22.70;56.60;;;;;;5073664;28;19927;-58
2023/07/13 04:57:24;;;;;;;;;;;22.80;56.60;;;;;;5073996;28;19927;-58
2023/07/13 04:59:50;;;;;;;;;;;22.80;56.60;;;;;;5092656;28;19920;-57
2023/07/13 05:02:16;;;;;;;;;;;22.80;56.60;;;;;;5095989;28;19920;-57
2023/07/13 05:04:41;;;;;;;;;;;22.70;56.60;;;;;;5095508;28;19935;-57
2023/07/13 05:07:07;;;;;;;;;;;22.80;56.60;;;;;;5095263;28;20349;-58
2023/07/13 05:09:33;;;;;;;;;;;22.70;56.60;;;;;;5077520;28;19920;-58
2023/07/13 05:11:58;;;;;;;;;;;22.80;56.70;;;;;;5077111;28;20282;-58
2023/07/13 05:14:24;;;;;;;;;;;22.70;56.60;;;;;;5095486;28;20287;-58
2023/07/13 05:16:49;;;;;;;;;;;22.70;56.60;;;;;;5077147;28;19931;-58
2023/07/13 05:19:15;;;;;;;;;;;22.70;56.60;;;;;;5077317;28;19928;-58
2023/07/13 05:21:41;;;;;;;;;;;22.70;56.60;;;;;;5076856;28;19969;-57
2023/07/13 05:24:06;;;;;;;;;;;22.70;56.60;;;;;;5077271;28;20375;-58
2023/07/13 05:26:32;;;;;;;;;;;22.70;56.60;;;;;;5094925;28;19928;-58
2023/07/13 05:28:58;;;;;;;;;;;22.70;56.60;;;;;;5094069;28;20007;-58
2023/07/13 05:31:23;;;;;;;;;;;22.70;56.70;;;;;;5076818;28;19920;-58
2023/07/13 05:33:49;;;;;;;;;;;22.70;56.70;;;;;;5075777;28;19924;-57
2023/07/13 05:36:15;;;;;;;;;;;22.70;56.60;;;;;;5073174;28;19927;-58
2023/07/13 05:38:40;;;;;;;;;;;22.70;56.70;;;;;;5080190;28;19931;-57
2023/07/13 05:41:06;;;;;;;;;;;22.70;56.90;;;;;;5092769;28;19927;-57
2023/07/13 05:43:31;;;;;;;;;;;22.70;56.90;;;;;;5094281;28;19965;-57
2023/07/13 05:45:57;;;;;;;;;;;22.70;56.90;;;;;;5079258;28;19924;-57
2023/07/13 05:48:23;;;;;;;;;;;22.70;57.00;;;;;;5076501;28;20005;-57
2023/07/13 05:50:49;;;;;;;;;;;22.70;57.00;;;;;;5092988;28;19990;-57
2023/07/13 05:53:14;;;;;;;;;;;22.70;57.10;;;;;;5072134;28;19936;-57
2023/07/13 05:55:41;;;;;;;;;;;22.80;57.20;;;;;;5076235;28;20276;-57
2023/07/13 05:58:06;;;;;;;;;;;22.70;57.10;;;;;;5060061;28;20260;-58
2023/07/13 06:00:32;;;;;;;;;;;22.70;57.00;;;;;;5071727;28;19951;-58
2023/07/13 06:02:58;;;;;;;;;;;22.70;57.10;;;;;;5061987;28;19925;-58
2023/07/13 06:05:24;;;;;;;;;;;22.70;57.00;;;;;;5053973;28;19960;-57
2023/07/13 06:07:49;;;;;;;;;;;22.70;57.10;;;;;;5064186;28;19970;-58
2023/07/13 06:10:15;;;;;;;;;;;22.70;57.10;;;;;;5061108;28;19951;-58
2023/07/13 06:12:40;;;;;;;;;;;22.70;57.10;;;;;;5068152;28;20383;-58
2023/07/13 06:15:06;;;;;;;;;;;22.70;57.10;;;;;;5068947;28;20299;-58
2023/07/13 06:17:32;;;;;;;;;;;22.70;57.10;;;;;;5070057;28;20125;-58
2023/07/13 06:19:57;;;;;;;;;;;22.70;57.20;;;;;;5068457;28;20314;-58
2023/07/13 06:22:25;;;;;;;;;;;22.70;57.10;;;;;;5068713;28;19924;-58
2023/07/13 06:24:51;;;;;;;;;;;22.70;57.20;;;;;;5069396;28;20273;-58
2023/07/13 06:27:17;;;;;;;;;;;22.70;57.30;;;;;;5068143;28;19974;-62
2023/07/13 06:29:44;;;;;;;;;;;22.70;57.30;;;;;;5067827;28;20466;-58
2023/07/13 06:32:10;;;;;;;;;;;22.70;57.40;;;;;;5053478;28;19925;-58
2023/07/13 06:34:36;;;;;;;;;;;22.70;57.50;;;;;;5055063;28;20294;-58
2023/07/13 06:37:01;;;;;;;;;;;22.70;57.60;;;;;;5053884;28;19927;-58
2023/07/13 06:39:27;;;;;;;;;;;22.70;57.60;;;;;;5050714;28;20390;-58
2023/07/13 06:41:52;;;;;;;;;;;22.70;57.80;;;;;;5054380;28;20399;-57
2023/07/13 06:44:18;;;;;;;;;;;22.70;57.70;;;;;;5052399;28;20012;-58
2023/07/13 06:46:43;;;;;;;;;;;22.70;57.70;;;;;;5056371;28;19928;-58
2023/07/13 06:49:09;;;;;;;;;;;22.70;58.10;;;;;;5056903;28;20105;-57
2023/07/13 06:51:34;;;;;;;;;;;22.70;58.10;;;;;;5049620;28;19920;-57
2023/07/13 06:54:00;;;;;;;;;;;22.80;58.20;;;;;;5058599;28;19932;-57
2023/07/13 06:56:25;;;;;;;;;;;22.80;58.30;;;;;;5052205;28;20053;-60
2023/07/13 06:58:51;;;;;;;;;;;22.70;58.30;;;;;;5073009;28;19973;-57
2023/07/13 07:01:17;;;;;;;;;;;22.80;58.40;;;;;;5058992;28;20052;-57
2023/07/13 07:03:42;;;;;;;;;;;22.80;59.20;;;;;;5073025;28;19924;-57
2023/07/13 07:08:52;;;;;;;;;;;22.80;58.50;;;;;;5068073;27;19923;-57
2023/07/13 07:11:19;;;;;;;;;;;22.80;58.60;;;;;;5061160;28;19924;-61
2023/07/13 07:13:44;;;;;;;;;;;22.80;58.50;;;;;;5068006;28;20298;-57
2023/07/13 07:16:10;;;;;;;;;;;22.80;58.50;;;;;;5065800;28;20015;-60
2023/07/13 07:18:36;;;;;;;;;;;22.80;58.60;;;;;;5063385;28;19916;-57
2023/07/13 07:21:02;;;;;;;;;;;22.80;58.40;;;;;;5063759;28;19920;-57
2023/07/13 07:23:27;;;;;;;;;;;22.90;58.50;;;;;;5061306;28;19929;-58
2023/07/13 07:25:53;;;;;;;;;;;22.90;58.60;;;;;;5064532;28;19924;-58
2023/07/13 07:28:19;;;;;;;;;;;22.90;58.40;;;;;;5057950;28;19931;-57
2023/07/13 07:30:45;;;;;;;;;;;22.90;58.20;;;;;;5064966;28;19931;-59
2023/07/13 07:33:11;;;;;;;;;;;22.90;58.30;;;;;;5063811;28;19932;-59
2023/07/13 07:35:36;;;;;;;;;;;22.90;58.20;;;;;;5060398;28;19924;-58
2023/07/13 07:38:02;;;;;;;;;;;22.90;58.20;;;;;;5068984;28;19924;-58
2023/07/13 07:40:28;;;;;;;;;;;22.90;58.20;;;;;;5065743;28;20452;-57
2023/07/13 07:42:57;;;;;;;;;;;22.90;58.10;;;;;;5062910;28;19925;-57
2023/07/13 07:45:23;;;;;;;;;;;22.90;58.00;;;;;;5059897;28;19929;-57
2023/07/13 07:47:49;;;;;;;;;;;22.90;58.00;;;;;;5062705;28;19955;-57
2023/07/13 07:50:15;;;;;;;;;;;22.90;58.00;;;;;;5065423;28;19924;-57
2023/07/13 07:52:40;;;;;;;;;;;22.90;57.90;;;;;;5058267;28;19932;-57
2023/07/13 07:55:07;;;;;;;;;;;22.90;58.00;;;;;;5060419;28;20967;-57
2023/07/13 07:57:32;;;;;;;;;;;22.90;57.90;;;;;;5051903;28;19928;-58
2023/07/13 07:59:58;;;;;;;;;;;22.90;57.90;;;;;;5056857;28;19932;-57
2023/07/13 08:02:24;;;;;;;;;;;22.90;58.00;;;;;;5054419;28;19951;-58
2023/07/13 08:04:50;;;;;;;;;;;22.90;58.10;;;;;;5061653;28;20106;-57
2023/07/13 08:07:15;;;;;;;;;;;22.90;57.90;;;;;;5062872;28;20926;-57
2023/07/13 08:09:41;;;;;;;;;;;22.90;58.20;;;;;;5061558;28;20040;-57
2023/07/13 08:12:07;;;;;;;;;;;22.90;58.40;;;;;;5055118;28;19924;-57
2023/07/13 08:14:32;;;;;;;;;;;22.90;58.60;;;;;;5055146;28;19925;-56
2023/07/13 08:16:58;;;;;;;;;;;23.00;58.70;;;;;;5054789;28;19929;-57
2023/07/13 08:19:23;;;;;;;;;;;23.00;58.90;;;;;;5054621;28;19925;-58
2023/07/13 08:21:49;;;;;;;;;;;23.00;59.00;;;;;;5051424;28;19925;-57
2023/07/13 08:24:15;;;;;;;;;;;23.00;59.00;;;;;;5051292;28;19921;-58
2023/07/13 08:26:40;;;;;;;;;;;23.10;59.10;;;;;;5050301;28;19947;-59
2023/07/13 08:29:06;;;;;;;;;;;23.10;58.80;;;;;;5042801;28;20372;-59
2023/07/13 08:31:32;;;;;;;;;;;23.10;59.00;;;;;;5044626;28;20465;-58
2023/07/13 08:33:57;;;;;;;;;;;23.10;58.90;;;;;;5048302;28;19921;-58
2023/07/13 08:36:23;;;;;;;;;;;23.10;58.80;;;;;;5046150;28;20236;-58
2023/07/13 08:38:48;;;;;;;;;;;23.10;59.00;;;;;;5048859;28;19920;-57
2023/07/13 08:41:15;;;;;;;;;;;23.10;58.90;;;;;;5049321;28;19974;-58
2023/07/13 08:43:42;;;;;;;;;;;23.10;59.00;;;;;;5047629;28;20376;-58
2023/07/13 08:46:09;;;;;;;;;;;23.10;59.00;;;;;;5052680;28;20049;-57
2023/07/13 08:48:37;;;;;;;;;;;23.10;59.10;;;;;;5033353;28;20433;-58
2023/07/13 08:53:47;;;;;;;;;;;23.10;59.30;;;;;;5047996;27;19949;-58
2023/07/13 08:56:18;;;;;;;;;;;23.10;59.20;;;;;;5046778;28;19947;-57
2023/07/13 08:58:44;;;;;;;;;;;23.10;59.50;;;;;;5046708;28;20632;-58
2023/07/13 09:01:23;;;;;;;;;;;23.10;59.50;;;;;;5044896;28;19924;-58
2023/07/13 09:06:37;;;;;;;;;;;23.10;59.80;;;;;;5083328;27;19927;-60
2023/07/13 09:09:06;;;;;;;;;;;23.20;59.90;;;;;;5114056;27;19920;-59
2023/07/13 09:11:45;;;;;;;;;;;23.10;60.00;;;;;;5080104;28;20347;-58
2023/07/13 09:16:55;;;;;;;;;;;23.10;60.20;;;;;;5062709;28;19946;-58
2023/07/13 09:19:23;;;;;;;;;;;23.20;60.30;;;;;;5049295;28;19925;-58
2023/07/13 09:21:51;;;;;;;;;;;23.10;60.30;;;;;;5062511;28;19924;-58
2023/07/13 09:26:59;;;;;;;;;;;23.10;60.30;;;;;;5088866;27;19949;-57
2023/07/13 09:29:28;;;;;;;;;;;23.10;60.50;;;;;;5073409;28;19920;-58
2023/07/13 09:31:58;;;;;;;;;;;23.10;60.30;;;;;;5084458;28;20440;-60
2023/07/13 09:34:24;;;;;;;;;;;23.10;60.20;;;;;;5066764;28;19924;-58
2023/07/13 09:36:49;;;;;;;;;;;23.10;60.10;;;;;;5084701;28;20249;-59
2023/07/13 09:39:24;;;;;;;;;;;23.10;60.10;;;;;;5076990;28;19920;-60
2023/07/13 09:42:09;;;;;;;;;;;23.10;60.10;;;;;;5069404;28;19928;-59
2023/07/13 09:44:37;;;;;;;;;;;23.10;60.30;;;;;;5100976;27;20307;-58
2023/07/13 09:47:03;;;;;;;;;;;23.10;60.30;;;;;;5078883;28;19973;-57
2023/07/13 09:49:32;;;;;;;;;;;23.10;60.40;;;;;;5110713;27;19928;-59
2023/07/13 09:52:00;;;;;;;;;;;23.00;60.40;;;;;;5108088;27;19939;-58
2023/07/13 09:54:25;;;;;;;;;;;23.10;60.60;;;;;;5075328;28;19920;-58
2023/07/13 09:56:56;;;;;;;;;;;23.10;60.60;;;;;;5078017;28;19932;-59
2023/07/13 09:59:23;;;;;;;;;;;23.00;60.60;;;;;;5076781;28;19928;-60
2023/07/13 10:01:49;;;;;;;;;;;23.10;60.80;;;;;;5066775;28;19954;-59
2023/07/13 10:04:18;;;;;;;;;;;23.10;60.60;;;;;;5076952;28;20391;-57
2023/07/13 10:06:44;;;;;;;;;;;23.10;60.70;;;;;;5077431;28;20364;-58
2023/07/13 10:09:10;;;;;;;;;;;23.10;60.70;;;;;;5080000;28;19928;-59
2023/07/13 10:11:37;;;;;;;;;;;23.10;61.00;;;;;;5076059;28;20005;-58
2023/07/13 10:14:09;;;;;;;;;;;23.10;61.00;;;;;;5075922;28;19997;-58
2023/07/13 10:16:35;;;;;;;;;;;23.10;61.30;;;;;;5068598;28;19931;-58
2023/07/13 10:19:06;;;;;;;;;;;23.10;61.40;;;;;;5104536;28;20000;-58
2023/07/13 10:21:38;;;;;;;;;;;23.10;61.40;;;;;;5108436;28;19928;-59
2023/07/13 10:26:49;;;;;;;;;;;23.20;61.10;;;;;;5078681;27;19922;-63
2023/07/13 10:29:15;;;;;;;;;;;23.30;61.10;;;;;;5050901;28;19924;-64
2023/07/13 10:31:41;;;;;;;;;;;23.30;61.00;;;;;;5088183;28;19927;-63
2023/07/13 10:34:09;;;;;;;;;;;23.40;60.90;;;;;;5054658;28;19986;-64
2023/07/13 10:39:20;;;;;;;;;;;23.50;60.70;;;;;;5090527;27;19955;-64
2023/07/13 10:41:48;;;;;;;;;;;23.60;60.60;;;;;;5076119;28;20104;-64
2023/07/13 10:44:29;;;;;;;;;;;23.60;60.60;;;;;;5073379;28;19928;-62
2023/07/13 10:46:58;;;;;;;;;;;23.70;61.00;;;;;;5076344;28;19946;-63
2023/07/13 10:49:24;;;;;;;;;;;23.70;61.70;;;;;;5080989;28;19936;-57
2023/07/13 10:51:51;;;;;;;;;;;23.70;62.20;;;;;;5078993;28;19954;-58
2023/07/13 10:57:18;;;;;;;;;;;23.70;61.70;;;;;;5075708;27;20296;-58
2023/07/13 10:59:49;;;;;;;;;;;23.70;62.00;;;;;;5075745;28;19931;-59
2023/07/13 11:02:22;;;;;;;;;;;23.70;62.10;;;;;;5071227;28;20249;-58
2023/07/13 11:04:49;;;;;;;;;;;23.70;62.50;;;;;;5071532;28;19966;-59
2023/07/13 11:07:31;;;;;;;;;;;23.70;61.90;;;;;;5077469;28;19924;-58
2023/07/13 11:09:58;;;;;;;;;;;23.60;61.90;;;;;;5073208;28;19970;-62
2023/07/13 11:15:07;;;;;;;;;;;23.60;62.30;;;;;;5092684;27;19937;-59
2023/07/13 11:17:35;;;;;;;;;;;23.50;62.50;;;;;;5084485;28;19951;-57
2023/07/13 11:25:52;;;;;;;;;;;23.50;63.00;;;;;;5087582;27;20305;-58
2023/07/13 11:28:22;;;;;;;;;;;23.60;63.10;;;;;;5084281;28;19924;-58
2023/07/13 11:30:49;;;;;;;;;;;23.60;63.50;;;;;;5087735;28;19993;-58
2023/07/13 11:38:40;;;;;;;;;;;23.60;63.60;;;;;;5108811;27;19948;-58
2023/07/13 11:41:07;;;;;;;;;;;23.60;63.70;;;;;;5104429;27;20371;-61
2023/07/13 11:43:33;;;;;;;;;;;23.60;63.60;;;;;;5110991;27;19923;-60
2023/07/13 11:46:11;;;;;;;;;;;23.60;63.40;;;;;;5137575;27;20054;-58
2023/07/13 11:48:37;;;;;;;;;;;23.60;63.50;;;;;;5104674;27;20132;-58
2023/07/13 11:51:04;;;;;;;;;;;23.60;63.70;;;;;;5103714;27;19924;-59
2023/07/13 11:53:36;;;;;;;;;;;23.60;64.00;;;;;;5097766;28;19924;-62
2023/07/13 11:56:02;;;;;;;;;;;23.60;64.10;;;;;;5107274;28;20343;-62
2023/07/13 11:58:28;;;;;;;;;;;23.60;64.30;;;;;;5106455;28;19923;-58
2023/07/13 12:00:55;;;;;;;;;;;23.60;64.30;;;;;;5108090;27;19935;-58
2023/07/13 12:03:24;;;;;;;;;;;23.70;64.40;;;;;;5102694;28;19931;-59
2023/07/13 12:06:05;;;;;;;;;;;23.70;64.30;;;;;;5105646;28;19980;-58
2023/07/13 12:08:37;;;;;;;;;;;23.70;64.60;;;;;;5100594;28;19963;-58
2023/07/13 12:11:05;;;;;;;;;;;23.70;64.30;;;;;;5106380;28;20019;-59
2023/07/13 12:13:35;;;;;;;;;;;23.70;64.30;;;;;;5107295;28;20030;-58
2023/07/13 12:16:01;;;;;;;;;;;23.70;64.50;;;;;;5139615;27;19923;-57
2023/07/13 12:18:30;;;;;;;;;;;23.80;64.60;;;;;;5103922;27;20523;-57
2023/07/13 12:20:56;;;;;;;;;;;23.80;64.60;;;;;;5106171;27;19923;-58
2023/07/13 12:23:25;;;;;;;;;;;23.80;64.60;;;;;;5135522;27;19923;-58
2023/07/13 12:25:51;;;;;;;;;;;23.80;64.30;;;;;;5104284;27;20027;-57
2023/07/13 12:28:20;;;;;;;;;;;23.80;64.60;;;;;;5101521;27;19928;-60
2023/07/13 12:30:47;;;;;;;;;;;23.90;64.40;;;;;;5104431;27;19963;-58
2023/07/13 12:33:14;;;;;;;;;;;23.90;64.80;;;;;;5105727;27;20092;-57
2023/07/13 12:35:41;;;;;;;;;;;23.90;64.60;;;;;;5101819;28;20378;-58
2023/07/13 12:38:08;;;;;;;;;;;23.90;64.50;;;;;;5105974;27;19932;-59
2023/07/13 12:40:34;;;;;;;;;;;23.90;64.50;;;;;;5101969;27;19924;-60
2023/07/13 12:43:02;;;;;;;;;;;23.90;64.40;;;;;;5135231;27;19966;-61
2023/07/13 12:45:28;;;;;;;;;;;23.90;64.10;;;;;;5099791;27;19949;-60
2023/07/13 12:47:55;;;;;;;;;;;23.90;64.00;;;;;;5118688;27;20016;-59
2023/07/13 12:50:23;;;;;;;;;;;23.90;63.70;;;;;;5090310;28;20170;-59
2023/07/13 12:52:51;;;;;;;;;;;23.90;63.30;;;;;;5095198;28;19955;-58
2023/07/13 12:55:18;;;;;;;;;;;23.90;63.00;;;;;;5091139;28;20326;-59
2023/07/13 12:57:49;;;;;;;;;;;23.90;62.80;;;;;;5090939;28;20032;-59
2023/07/13 13:03:05;;;;;;;;;;;24.00;62.50;;;;;;5088111;27;19922;-59
2023/07/13 13:05:31;;;;;;;;;;;24.00;62.50;;;;;;5087750;28;20387;-59
2023/07/13 13:07:57;;;;;;;;;;;24.00;62.20;;;;;;5116598;27;19920;-58
2023/07/13 13:10:23;;;;;;;;;;;24.00;62.00;;;;;;5118236;27;19920;-58
2023/07/13 13:12:48;;;;;;;;;;;23.90;61.90;;;;;;5115612;27;19954;-58
2023/07/13 13:15:14;;;;;;;;;;;23.90;61.80;;;;;;5088255;28;19924;-58
2023/07/13 13:17:39;;;;;;;;;;;24.00;61.90;;;;;;5121524;27;19926;-57
2023/07/13 13:20:21;;;;;;;;;;;24.00;61.70;;;;;;5093874;28;20011;-58
2023/07/13 13:22:46;;;;;;;;;;;24.00;61.50;;;;;;5097831;28;19924;-57
2023/07/13 13:25:12;;;;;;;;;;;23.90;61.20;;;;;;5099894;28;19926;-58
2023/07/13 13:27:40;;;;;;;;;;;24.00;61.00;;;;;;5094958;28;19953;-57
2023/07/13 13:30:10;;;;;;;;;;;24.00;61.10;;;;;;5099444;28;20014;-57
2023/07/13 13:32:36;;;;;;;;;;;24.00;61.00;;;;;;5102802;28;20487;-58
2023/07/13 13:35:01;;;;;;;;;;;23.90;61.00;;;;;;5103291;28;19923;-58
2023/07/13 13:37:27;;;;;;;;;;;23.90;61.00;;;;;;5090357;28;19924;-57
2023/07/13 13:39:53;;;;;;;;;;;24.00;61.10;;;;;;5095468;28;20121;-58
2023/07/13 13:42:21;;;;;;;;;;;24.00;61.00;;;;;;5076837;28;20411;-57
2023/07/13 13:44:46;;;;;;;;;;;23.90;60.80;;;;;;5100186;28;19935;-58
2023/07/13 13:47:19;;;;;;;;;;;24.00;60.80;;;;;;5099773;28;19928;-59
2023/07/13 13:49:47;;;;;;;;;;;23.90;60.60;;;;;;5096978;28;19923;-59
2023/07/13 13:52:12;;;;;;;;;;;23.90;60.50;;;;;;5101205;28;19928;-59
2023/07/13 13:54:38;;;;;;;;;;;23.90;60.50;;;;;;5091582;28;20074;-59
2023/07/13 13:57:04;;;;;;;;;;;23.90;60.40;;;;;;5098304;28;19973;-59
2023/07/13 13:59:32;;;;;;;;;;;23.90;60.30;;;;;;5100655;28;19982;-59
2023/07/13 14:01:59;;;;;;;;;;;23.90;60.40;;;;;;5123363;27;19947;-58
2023/07/13 14:04:25;;;;;;;;;;;23.90;60.30;;;;;;5097834;28;19924;-58
2023/07/13 14:06:51;;;;;;;;;;;23.90;60.30;;;;;;5104179;28;20405;-58
2023/07/13 14:09:17;;;;;;;;;;;23.90;60.20;;;;;;5105838;28;19989;-58
2023/07/13 14:11:44;;;;;;;;;;;23.90;60.10;;;;;;5102986;28;19923;-58
2023/07/13 14:14:18;;;;;;;;;;;23.90;60.00;;;;;;5095087;28;20327;-59
2023/07/13 14:16:43;;;;;;;;;;;23.90;60.00;;;;;;5085023;28;19928;-58
2023/07/13 14:19:11;;;;;;;;;;;23.90;59.90;;;;;;5081589;28;19963;-59
2023/07/13 14:21:37;;;;;;;;;;;23.90;59.90;;;;;;5083598;28;20068;-58
2023/07/13 14:24:02;;;;;;;;;;;23.90;59.90;;;;;;5088892;28;20507;-58
2023/07/13 14:26:30;;;;;;;;;;;23.90;59.80;;;;;;5082785;28;19923;-58
2023/07/13 14:28:57;;;;;;;;;;;23.90;59.70;;;;;;5086734;28;19923;-58
2023/07/13 14:31:24;;;;;;;;;;;23.90;59.70;;;;;;5089539;28;20295;-58
2023/07/13 14:33:49;;;;;;;;;;;23.90;59.50;;;;;;5086562;28;20000;-58
2023/07/13 14:36:31;;;;;;;;;;;23.90;59.50;;;;;;5089512;28;20027;-58
2023/07/13 14:38:57;;;;;;;;;;;23.90;59.40;;;;;;5098636;28;20010;-58
2023/07/13 14:41:23;;;;;;;;;;;23.90;59.30;;;;;;5100098;28;20246;-58
2023/07/13 14:43:48;;;;;;;;;;;23.90;59.20;;;;;;5108011;28;20021;-58
2023/07/13 14:46:32;;;;;;;;;;;23.90;59.10;;;;;;5101099;28;19968;-58
2023/07/13 14:49:01;;;;;;;;;;;23.90;59.20;;;;;;5088563;28;19916;-58
2023/07/13 14:51:26;;;;;;;;;;;23.90;59.10;;;;;;5088757;28;20180;-58